sensor_id;sensor_type;location;lat;lon;timestamp;temperature;humidity
39103;DHT22;24847;48.218;16.414;2023-01-09T00:00:51;2.00;99.90
39103;DHT22;24847;48.218;16.414;2023-01-09T00:05:54;1.90;99.90
39103;DHT22;24847;48.218;16.414;2023-01-09T00:11:01;1.90;99.90
39103;DHT22;24847;48.218;16.414;2023-01-09T00:16:04;2.00;99.90
39103;DHT22;24847;48.218;16.414;2023-01-09T00:21:11;2.10;99.90
39103;DHT22;24847;48.218;16.414;2023-01-09T00:26:16;2.20;99.90
39103;DHT22;24847;48.218;16.414;2023-01-09T00:31:20;2.10;99.90
39103;DHT22;24847;48.218;16.414;2023-01-09T00:36:24;2.00;99.90
39103;DHT22;24847;48.218;16.414;2023-01-09T00:41:35;2.20;99.90
39103;DHT22;24847;48.218;16.414;2023-01-09T00:46:43;2.10;99.90
39103;DHT22;24847;48.218;16.414;2023-01-09T00:51:47;2.00;99.90
39103;DHT22;24847;48.218;16.414;2023-01-09T00:56:54;2.10;99.90
39103;DHT22;24847;48.218;16.414;2023-01-09T01:02:00;2.30;99.90
39103;DHT22;24847;48.218;16.414;2023-01-09T01:07:05;2.30;99.90
39103;DHT22;24847;48.218;16.414;2023-01-09T01:12:26;2.20;99.90
39103;DHT22;24847;48.218;16.414;2023-01-09T01:17:33;2.20;99.90
39103;DHT22;24847;48.218;16.414;2023-01-09T01:22:36;2.10;99.90
39103;DHT22;24847;48.218;16.414;2023-01-09T01:27:43;2.00;99.90
39103;DHT22;24847;48.218;16.414;2023-01-09T01:32:46;2.10;99.90
39103;DHT22;24847;48.218;16.414;2023-01-09T01:37:52;2.00;99.90
39103;DHT22;24847;48.218;16.414;2023-01-09T01:43:00;2.10;99.90
39103;DHT22;24847;48.218;16.414;2023-01-09T01:48:05;2.40;99.90
39103;DHT22;24847;48.218;16.414;2023-01-09T01:53:12;2.00;99.90
39103;DHT22;24847;48.218;16.414;2023-01-09T01:58:19;2.10;99.90
39103;DHT22;24847;48.218;16.414;2023-01-09T02:03:24;2.30;99.90
39103;DHT22;24847;48.218;16.414;2023-01-09T02:08:29;2.30;99.90
39103;DHT22;24847;48.218;16.414;2023-01-09T02:13:34;2.30;99.90
39103;DHT22;24847;48.218;16.414;2023-01-09T02:18:48;2.20;99.90
39103;DHT22;24847;48.218;16.414;2023-01-09T02:24:09;2.20;99.90
39103;DHT22;24847;48.218;16.414;2023-01-09T02:35:44;2.20;99.90
39103;DHT22;24847;48.218;16.414;2023-01-09T02:40:58;2.20;99.90
39103;DHT22;24847;48.218;16.414;2023-01-09T02:46:17;2.20;99.90
39103;DHT22;24847;48.218;16.414;2023-01-09T02:51:31;2.10;99.90
39103;DHT22;24847;48.218;16.414;2023-01-09T02:57:02;2.20;99.90
39103;DHT22;24847;48.218;16.414;2023-01-09T03:02:29;2.40;99.90
39103;DHT22;24847;48.218;16.414;2023-01-09T03:07:44;2.50;99.90
39103;DHT22;24847;48.218;16.414;2023-01-09T03:12:51;2.50;99.90
39103;DHT22;24847;48.218;16.414;2023-01-09T03:17:56;2.50;99.90
39103;DHT22;24847;48.218;16.414;2023-01-09T03:23:01;2.60;99.90
39103;DHT22;24847;48.218;16.414;2023-01-09T03:28:12;2.40;99.90
39103;DHT22;24847;48.218;16.414;2023-01-09T03:33:25;2.60;99.90
39103;DHT22;24847;48.218;16.414;2023-01-09T03:38:29;2.60;99.90
39103;DHT22;24847;48.218;16.414;2023-01-09T03:43:34;2.50;99.90
39103;DHT22;24847;48.218;16.414;2023-01-09T03:48:38;2.60;99.90
39103;DHT22;24847;48.218;16.414;2023-01-09T03:53:43;2.40;99.90
39103;DHT22;24847;48.218;16.414;2023-01-09T03:58:51;2.90;99.90
39103;DHT22;24847;48.218;16.414;2023-01-09T04:03:58;2.90;99.90
39103;DHT22;24847;48.218;16.414;2023-01-09T04:09:00;3.10;99.90
39103;DHT22;24847;48.218;16.414;2023-01-09T04:14:03;3.10;99.90
39103;DHT22;24847;48.218;16.414;2023-01-09T04:19:06;3.10;99.90
39103;DHT22;24847;48.218;16.414;2023-01-09T04:24:09;3.00;99.90
39103;DHT22;24847;48.218;16.414;2023-01-09T04:29:11;2.90;99.90
39103;DHT22;24847;48.218;16.414;2023-01-09T04:34:14;3.20;99.90
39103;DHT22;24847;48.218;16.414;2023-01-09T04:39:17;3.20;99.90
39103;DHT22;24847;48.218;16.414;2023-01-09T04:44:22;3.10;99.90
39103;DHT22;24847;48.218;16.414;2023-01-09T04:49:27;3.00;99.90
39103;DHT22;24847;48.218;16.414;2023-01-09T04:54:33;3.20;99.90
39103;DHT22;24847;48.218;16.414;2023-01-09T04:59:36;3.30;99.90
39103;DHT22;24847;48.218;16.414;2023-01-09T05:04:39;3.40;99.90
39103;DHT22;24847;48.218;16.414;2023-01-09T05:09:44;3.40;99.90
39103;DHT22;24847;48.218;16.414;2023-01-09T05:14:48;3.40;99.90
39103;DHT22;24847;48.218;16.414;2023-01-09T05:19:54;3.50;99.90
39103;DHT22;24847;48.218;16.414;2023-01-09T05:24:56;3.50;99.90
39103;DHT22;24847;48.218;16.414;2023-01-09T05:30:03;3.50;99.90
39103;DHT22;24847;48.218;16.414;2023-01-09T05:35:09;3.50;99.90
39103;DHT22;24847;48.218;16.414;2023-01-09T05:40:12;3.60;99.90
39103;DHT22;24847;48.218;16.414;2023-01-09T05:45:16;3.70;99.90
39103;DHT22;24847;48.218;16.414;2023-01-09T05:50:23;3.80;99.90
39103;DHT22;24847;48.218;16.414;2023-01-09T05:55:25;3.80;99.90
39103;DHT22;24847;48.218;16.414;2023-01-09T06:00:28;3.80;99.90
39103;DHT22;24847;48.218;16.414;2023-01-09T06:05:31;3.90;99.90
39103;DHT22;24847;48.218;16.414;2023-01-09T06:10:36;3.90;99.90
39103;DHT22;24847;48.218;16.414;2023-01-09T06:15:46;4.10;99.90
39103;DHT22;24847;48.218;16.414;2023-01-09T06:20:49;4.10;99.90
39103;DHT22;24847;48.218;16.414;2023-01-09T06:25:53;4.10;99.90
39103;DHT22;24847;48.218;16.414;2023-01-09T06:30:57;4.20;99.90
39103;DHT22;24847;48.218;16.414;2023-01-09T06:36:04;4.30;99.90
39103;DHT22;24847;48.218;16.414;2023-01-09T06:41:07;4.40;99.90
39103;DHT22;24847;48.218;16.414;2023-01-09T06:46:13;4.50;99.90
39103;DHT22;24847;48.218;16.414;2023-01-09T06:51:25;4.60;99.90
39103;DHT22;24847;48.218;16.414;2023-01-09T06:56:30;4.60;99.90
39103;DHT22;24847;48.218;16.414;2023-01-09T07:01:33;4.60;99.90
39103;DHT22;24847;48.218;16.414;2023-01-09T07:06:36;4.70;99.90
39103;DHT22;24847;48.218;16.414;2023-01-09T07:11:39;4.80;99.90
39103;DHT22;24847;48.218;16.414;2023-01-09T07:16:44;4.90;99.90
39103;DHT22;24847;48.218;16.414;2023-01-09T07:21:47;4.90;99.90
39103;DHT22;24847;48.218;16.414;2023-01-09T07:26:50;4.70;99.90
39103;DHT22;24847;48.218;16.414;2023-01-09T07:31:56;4.60;99.90
39103;DHT22;24847;48.218;16.414;2023-01-09T07:37:00;4.80;99.90
39103;DHT22;24847;48.218;16.414;2023-01-09T07:42:02;4.90;99.90
39103;DHT22;24847;48.218;16.414;2023-01-09T07:47:08;4.90;99.90
39103;DHT22;24847;48.218;16.414;2023-01-09T07:52:12;5.00;99.90
39103;DHT22;24847;48.218;16.414;2023-01-09T07:57:15;4.90;99.90
39103;DHT22;24847;48.218;16.414;2023-01-09T08:02:17;4.80;99.90
39103;DHT22;24847;48.218;16.414;2023-01-09T08:07:21;4.70;99.90
39103;DHT22;24847;48.218;16.414;2023-01-09T08:12:23;4.60;99.90
39103;DHT22;24847;48.218;16.414;2023-01-09T08:17:25;4.60;99.90
39103;DHT22;24847;48.218;16.414;2023-01-09T08:22:33;4.70;99.90
39103;DHT22;24847;48.218;16.414;2023-01-09T08:27:39;4.90;99.90
39103;DHT22;24847;48.218;16.414;2023-01-09T08:32:41;4.90;99.90
39103;DHT22;24847;48.218;16.414;2023-01-09T08:37:45;4.90;99.90
39103;DHT22;24847;48.218;16.414;2023-01-09T08:42:49;4.80;99.90
39103;DHT22;24847;48.218;16.414;2023-01-09T08:48:12;5.00;99.90
39103;DHT22;24847;48.218;16.414;2023-01-09T08:53:16;5.00;99.90
39103;DHT22;24847;48.218;16.414;2023-01-09T08:58:18;4.80;99.90
39103;DHT22;24847;48.218;16.414;2023-01-09T09:03:22;5.00;99.90
39103;DHT22;24847;48.218;16.414;2023-01-09T09:08:29;5.30;99.90
39103;DHT22;24847;48.218;16.414;2023-01-09T09:13:31;5.40;99.90
39103;DHT22;24847;48.218;16.414;2023-01-09T09:18:37;5.50;99.90
39103;DHT22;24847;48.218;16.414;2023-01-09T09:23:46;5.20;99.90
39103;DHT22;24847;48.218;16.414;2023-01-09T09:28:51;5.10;99.90
39103;DHT22;24847;48.218;16.414;2023-01-09T09:33:59;5.20;99.90
39103;DHT22;24847;48.218;16.414;2023-01-09T09:39:03;5.30;99.90
39103;DHT22;24847;48.218;16.414;2023-01-09T09:44:22;5.40;99.90
39103;DHT22;24847;48.218;16.414;2023-01-09T09:49:53;5.60;99.90
39103;DHT22;24847;48.218;16.414;2023-01-09T09:55:10;5.80;99.90
39103;DHT22;24847;48.218;16.414;2023-01-09T10:00:20;6.00;99.90
39103;DHT22;24847;48.218;16.414;2023-01-09T10:05:26;6.10;99.90
39103;DHT22;24847;48.218;16.414;2023-01-09T10:10:36;6.10;99.90
39103;DHT22;24847;48.218;16.414;2023-01-09T10:15:45;6.00;99.90
39103;DHT22;24847;48.218;16.414;2023-01-09T10:20:57;6.10;99.90
39103;DHT22;24847;48.218;16.414;2023-01-09T10:26:09;6.10;99.90
39103;DHT22;24847;48.218;16.414;2023-01-09T10:31:22;6.10;99.90
39103;DHT22;24847;48.218;16.414;2023-01-09T10:37:01;6.10;99.90
39103;DHT22;24847;48.218;16.414;2023-01-09T10:42:15;6.20;99.90
39103;DHT22;24847;48.218;16.414;2023-01-09T10:47:26;6.30;99.90
39103;DHT22;24847;48.218;16.414;2023-01-09T10:52:34;6.30;99.90
39103;DHT22;24847;48.218;16.414;2023-01-09T10:57:44;6.30;99.90
39103;DHT22;24847;48.218;16.414;2023-01-09T11:02:49;6.30;99.90
39103;DHT22;24847;48.218;16.414;2023-01-09T11:07:57;6.30;99.90
39103;DHT22;24847;48.218;16.414;2023-01-09T11:13:13;6.30;99.90
39103;DHT22;24847;48.218;16.414;2023-01-09T11:18:21;6.40;99.90
39103;DHT22;24847;48.218;16.414;2023-01-09T11:23:30;6.40;99.90
39103;DHT22;24847;48.218;16.414;2023-01-09T11:28:36;6.50;99.90
39103;DHT22;24847;48.218;16.414;2023-01-09T11:33:38;6.50;99.90
39103;DHT22;24847;48.218;16.414;2023-01-09T11:38:52;6.60;99.90
39103;DHT22;24847;48.218;16.414;2023-01-09T11:44:00;6.70;99.90
39103;DHT22;24847;48.218;16.414;2023-01-09T11:49:22;6.70;99.90
39103;DHT22;24847;48.218;16.414;2023-01-09T11:54:31;6.80;99.90
39103;DHT22;24847;48.218;16.414;2023-01-09T11:59:39;6.80;99.90
39103;DHT22;24847;48.218;16.414;2023-01-09T12:04:49;6.80;99.90
39103;DHT22;24847;48.218;16.414;2023-01-09T12:09:58;6.80;99.90
39103;DHT22;24847;48.218;16.414;2023-01-09T12:15:22;6.70;99.90
39103;DHT22;24847;48.218;16.414;2023-01-09T12:20:35;6.80;99.90
39103;DHT22;24847;48.218;16.414;2023-01-09T12:25:51;6.90;99.90
39103;DHT22;24847;48.218;16.414;2023-01-09T12:31:20;6.90;99.90
39103;DHT22;24847;48.218;16.414;2023-01-09T12:36:41;6.90;99.90
39103;DHT22;24847;48.218;16.414;2023-01-09T12:42:00;7.00;99.90
39103;DHT22;24847;48.218;16.414;2023-01-09T12:47:40;7.10;99.90
39103;DHT22;24847;48.218;16.414;2023-01-09T12:52:50;7.10;99.90
39103;DHT22;24847;48.218;16.414;2023-01-09T12:58:00;7.10;99.90
39103;DHT22;24847;48.218;16.414;2023-01-09T13:03:19;7.10;99.90
39103;DHT22;24847;48.218;16.414;2023-01-09T13:08:29;7.10;99.90
39103;DHT22;24847;48.218;16.414;2023-01-09T13:13:37;7.10;99.90
39103;DHT22;24847;48.218;16.414;2023-01-09T13:18:46;7.20;99.90
39103;DHT22;24847;48.218;16.414;2023-01-09T13:23:54;7.10;99.90
39103;DHT22;24847;48.218;16.414;2023-01-09T13:29:06;7.10;99.90
39103;DHT22;24847;48.218;16.414;2023-01-09T13:34:20;7.10;99.90
39103;DHT22;24847;48.218;16.414;2023-01-09T13:39:25;7.10;99.90
39103;DHT22;24847;48.218;16.414;2023-01-09T13:44:28;7.10;99.90
39103;DHT22;24847;48.218;16.414;2023-01-09T13:49:59;7.10;99.90
39103;DHT22;24847;48.218;16.414;2023-01-09T13:55:24;7.20;99.90
39103;DHT22;24847;48.218;16.414;2023-01-09T14:00:47;7.10;99.90
39103;DHT22;24847;48.218;16.414;2023-01-09T14:06:11;7.20;99.90
39103;DHT22;24847;48.218;16.414;2023-01-09T14:11:22;7.00;99.90
39103;DHT22;24847;48.218;16.414;2023-01-09T14:16:30;7.20;99.90
39103;DHT22;24847;48.218;16.414;2023-01-09T14:21:45;7.10;99.90
39103;DHT22;24847;48.218;16.414;2023-01-09T14:26:51;7.20;99.90
39103;DHT22;24847;48.218;16.414;2023-01-09T14:32:43;7.10;99.90
39103;DHT22;24847;48.218;16.414;2023-01-09T14:38:01;7.10;99.90
39103;DHT22;24847;48.218;16.414;2023-01-09T14:43:18;7.10;99.90
39103;DHT22;24847;48.218;16.414;2023-01-09T14:48:25;7.10;99.90
39103;DHT22;24847;48.218;16.414;2023-01-09T14:53:30;7.10;99.90
39103;DHT22;24847;48.218;16.414;2023-01-09T14:58:40;7.10;99.90
39103;DHT22;24847;48.218;16.414;2023-01-09T15:03:47;7.00;99.90
39103;DHT22;24847;48.218;16.414;2023-01-09T15:09:00;7.10;99.90
39103;DHT22;24847;48.218;16.414;2023-01-09T15:14:13;7.10;99.90
39103;DHT22;24847;48.218;16.414;2023-01-09T15:19:23;7.10;99.90
39103;DHT22;24847;48.218;16.414;2023-01-09T15:24:31;7.10;99.90
39103;DHT22;24847;48.218;16.414;2023-01-09T15:29:34;7.00;99.90
39103;DHT22;24847;48.218;16.414;2023-01-09T15:34:36;7.10;99.90
39103;DHT22;24847;48.218;16.414;2023-01-09T15:39:42;7.10;99.90
39103;DHT22;24847;48.218;16.414;2023-01-09T15:44:47;7.00;99.90
39103;DHT22;24847;48.218;16.414;2023-01-09T15:49:50;7.00;99.90
39103;DHT22;24847;48.218;16.414;2023-01-09T15:54:54;7.10;99.90
39103;DHT22;24847;48.218;16.414;2023-01-09T16:00:31;7.00;99.90
39103;DHT22;24847;48.218;16.414;2023-01-09T16:05:44;7.00;99.90
39103;DHT22;24847;48.218;16.414;2023-01-09T16:10:57;7.00;99.90
39103;DHT22;24847;48.218;16.414;2023-01-09T16:16:02;7.10;99.90
39103;DHT22;24847;48.218;16.414;2023-01-09T16:21:32;7.00;99.90
39103;DHT22;24847;48.218;16.414;2023-01-09T16:26:38;7.00;99.90
39103;DHT22;24847;48.218;16.414;2023-01-09T16:31:44;7.10;99.90
39103;DHT22;24847;48.218;16.414;2023-01-09T16:36:52;7.10;99.90
39103;DHT22;24847;48.218;16.414;2023-01-09T16:41:58;7.10;99.90
39103;DHT22;24847;48.218;16.414;2023-01-09T16:47:20;7.00;99.90
39103;DHT22;24847;48.218;16.414;2023-01-09T16:52:23;7.10;99.90
39103;DHT22;24847;48.218;16.414;2023-01-09T16:57:29;7.10;99.90
39103;DHT22;24847;48.218;16.414;2023-01-09T17:02:35;7.10;99.90
39103;DHT22;24847;48.218;16.414;2023-01-09T17:07:42;7.10;99.90
39103;DHT22;24847;48.218;16.414;2023-01-09T17:12:46;7.10;99.90
39103;DHT22;24847;48.218;16.414;2023-01-09T17:17:48;7.10;99.90
39103;DHT22;24847;48.218;16.414;2023-01-09T17:22:53;7.10;99.90
39103;DHT22;24847;48.218;16.414;2023-01-09T17:28:02;7.10;99.90
39103;DHT22;24847;48.218;16.414;2023-01-09T17:33:27;7.00;99.90
39103;DHT22;24847;48.218;16.414;2023-01-09T17:38:29;7.10;99.90
39103;DHT22;24847;48.218;16.414;2023-01-09T17:43:32;7.10;99.90
39103;DHT22;24847;48.218;16.414;2023-01-09T17:48:38;7.10;99.90
39103;DHT22;24847;48.218;16.414;2023-01-09T17:53:43;7.10;99.90
39103;DHT22;24847;48.218;16.414;2023-01-09T17:58:50;7.10;99.90
39103;DHT22;24847;48.218;16.414;2023-01-09T18:03:53;7.10;99.90
39103;DHT22;24847;48.218;16.414;2023-01-09T18:08:56;7.10;99.90
39103;DHT22;24847;48.218;16.414;2023-01-09T18:14:03;7.10;99.90
39103;DHT22;24847;48.218;16.414;2023-01-09T18:19:06;7.10;99.90
39103;DHT22;24847;48.218;16.414;2023-01-09T18:24:08;7.10;99.90
39103;DHT22;24847;48.218;16.414;2023-01-09T18:29:14;7.00;99.90
39103;DHT22;24847;48.218;16.414;2023-01-09T18:34:26;7.00;99.90
39103;DHT22;24847;48.218;16.414;2023-01-09T18:39:30;7.00;99.90
39103;DHT22;24847;48.218;16.414;2023-01-09T18:44:34;7.00;99.90
39103;DHT22;24847;48.218;16.414;2023-01-09T18:49:39;6.90;99.90
39103;DHT22;24847;48.218;16.414;2023-01-09T18:54:42;7.00;99.90
39103;DHT22;24847;48.218;16.414;2023-01-09T18:59:46;6.90;99.90
39103;DHT22;24847;48.218;16.414;2023-01-09T19:04:50;7.00;99.90
39103;DHT22;24847;48.218;16.414;2023-01-09T19:09:55;7.00;99.90
39103;DHT22;24847;48.218;16.414;2023-01-09T19:15:05;7.00;99.90
39103;DHT22;24847;48.218;16.414;2023-01-09T19:20:11;6.90;99.90
39103;DHT22;24847;48.218;16.414;2023-01-09T19:25:20;6.90;99.90
39103;DHT22;24847;48.218;16.414;2023-01-09T19:30:25;7.00;99.90
39103;DHT22;24847;48.218;16.414;2023-01-09T19:35:32;6.90;99.90
39103;DHT22;24847;48.218;16.414;2023-01-09T19:40:35;6.90;99.90
39103;DHT22;24847;48.218;16.414;2023-01-09T19:45:40;7.00;99.90
39103;DHT22;24847;48.218;16.414;2023-01-09T19:50:46;6.90;99.90
39103;DHT22;24847;48.218;16.414;2023-01-09T19:55:51;6.80;99.90
39103;DHT22;24847;48.218;16.414;2023-01-09T20:01:07;6.80;99.90
39103;DHT22;24847;48.218;16.414;2023-01-09T20:06:13;6.70;99.90
39103;DHT22;24847;48.218;16.414;2023-01-09T20:11:29;6.80;99.90
39103;DHT22;24847;48.218;16.414;2023-01-09T20:16:37;6.70;99.90
39103;DHT22;24847;48.218;16.414;2023-01-09T20:21:42;6.80;99.90
39103;DHT22;24847;48.218;16.414;2023-01-09T20:26:44;6.80;99.90
39103;DHT22;24847;48.218;16.414;2023-01-09T20:31:48;6.80;99.90
39103;DHT22;24847;48.218;16.414;2023-01-09T20:36:54;6.80;99.90
39103;DHT22;24847;48.218;16.414;2023-01-09T20:42:03;6.80;99.90
39103;DHT22;24847;48.218;16.414;2023-01-09T20:47:10;6.70;99.90
39103;DHT22;24847;48.218;16.414;2023-01-09T20:52:14;6.70;99.90
39103;DHT22;24847;48.218;16.414;2023-01-09T20:57:17;6.80;99.90
39103;DHT22;24847;48.218;16.414;2023-01-09T21:02:23;6.80;99.90
39103;DHT22;24847;48.218;16.414;2023-01-09T21:07:28;6.80;99.90
39103;DHT22;24847;48.218;16.414;2023-01-09T21:12:32;6.60;99.90
39103;DHT22;24847;48.218;16.414;2023-01-09T21:17:42;6.70;99.90
39103;DHT22;24847;48.218;16.414;2023-01-09T21:22:47;6.80;99.90
39103;DHT22;24847;48.218;16.414;2023-01-09T21:27:52;6.80;99.90
39103;DHT22;24847;48.218;16.414;2023-01-09T21:33:04;6.60;99.90
39103;DHT22;24847;48.218;16.414;2023-01-09T21:38:07;6.70;99.90
39103;DHT22;24847;48.218;16.414;2023-01-09T21:43:24;6.50;99.90
39103;DHT22;24847;48.218;16.414;2023-01-09T21:48:45;6.50;99.90
39103;DHT22;24847;48.218;16.414;2023-01-09T21:53:47;6.50;99.90
39103;DHT22;24847;48.218;16.414;2023-01-09T21:58:52;6.60;99.90
39103;DHT22;24847;48.218;16.414;2023-01-09T22:03:56;6.50;99.90
39103;DHT22;24847;48.218;16.414;2023-01-09T22:09:00;6.60;99.90
39103;DHT22;24847;48.218;16.414;2023-01-09T22:14:02;6.40;99.90
39103;DHT22;24847;48.218;16.414;2023-01-09T22:19:08;6.40;99.90
39103;DHT22;24847;48.218;16.414;2023-01-09T22:24:17;6.40;99.90
39103;DHT22;24847;48.218;16.414;2023-01-09T22:29:22;6.50;99.90
39103;DHT22;24847;48.218;16.414;2023-01-09T22:34:26;6.40;99.90
39103;DHT22;24847;48.218;16.414;2023-01-09T22:39:31;6.40;99.90
39103;DHT22;24847;48.218;16.414;2023-01-09T22:44:36;6.50;99.90
39103;DHT22;24847;48.218;16.414;2023-01-09T22:49:48;6.40;99.90
39103;DHT22;24847;48.218;16.414;2023-01-09T22:54:54;6.40;99.90
39103;DHT22;24847;48.218;16.414;2023-01-09T22:59:59;6.40;99.90
39103;DHT22;24847;48.218;16.414;2023-01-09T23:05:06;6.40;99.90
39103;DHT22;24847;48.218;16.414;2023-01-09T23:10:12;6.40;99.90
39103;DHT22;24847;48.218;16.414;2023-01-09T23:15:16;6.50;99.90
39103;DHT22;24847;48.218;16.414;2023-01-09T23:20:19;6.40;99.90
39103;DHT22;24847;48.218;16.414;2023-01-09T23:25:22;6.50;99.90
39103;DHT22;24847;48.218;16.414;2023-01-09T23:30:24;6.50;99.90
39103;DHT22;24847;48.218;16.414;2023-01-09T23:35:28;6.50;99.90
39103;DHT22;24847;48.218;16.414;2023-01-09T23:40:30;6.40;99.90
39103;DHT22;24847;48.218;16.414;2023-01-09T23:45:32;6.50;99.90
39103;DHT22;24847;48.218;16.414;2023-01-09T23:50:37;6.40;99.90
39103;DHT22;24847;48.218;16.414;2023-01-09T23:55:40;6.40;99.90
